KPQI/PQI METAR and TAF weather

Enter ICAO airport designator
Station Type Date Time Source
KPQI METAR 2019/04/18 21:56 UTC NOAA

KPQI 182156Z AUTO 17013G22KT 10SM -RA FEW023 BKN037 OVC065 03/01 A3005 RMK AO2 PK WND 20027/2114 SLP220 P0001 T00330011


Station Type Date Time Source
KPQI Decoded METAR 2019/04/18 21:56 UTC NOAA

Presque Isle, ME, United States (KPQI) 46-41N 068-03W 146M
Apr 18, 2019 - 05:56 PM EDT / 2019.04.18 2156 UTC
Wind: from the S (170 degrees) at 15 MPH (13 KT) gusting to 25 MPH (22 KT):0
Visibility: 10 mile(s):0
Sky conditions: overcast
Weather: light rain
Precipitation last hour: 0.01 inches
Temperature: 37.9 F (3.3 C)
Dew Point: 34.0 F (1.1 C)
Relative Humidity: 85%
Pressure (altimeter): 30.05 in. Hg (1017 hPa)
ob: KPQI 182156Z AUTO 17013G22KT 10SM -RA FEW023 BKN037 OVC065 03/01 A3005 RMK AO2 PK WND 20027/2114 SLP220 P0001 T00330011
cycle: 22

Station Type Date Time Source
KPQI TAF 2019/04/18 21:54 UTC NOAA

TAF
AMD KPQI 182053Z 1821/1918 18014G22KT P6SM -RA OVC035
FM190000 16011G19KT P6SM -RA OVC045
FM190300 18015G25KT 3SM -RA OVC013
FM190400 18015G24KT 2SM -RA BR OVC009

Example: see airport list